Time;durP1;ratioP1;P1;durP2;ratioP2;P2;SDS_P1;SDS_P2;PMS_P1;PMS_P2;Temp;Humidity;BMP_temperature;BMP_pressure;BME280_temperature;BME280_humidity;BME280_pressure;Samples;Min_cycle;Max_cycle;Signal;HPM_P1;HPM_P2
2021/06/18 00:01:14;;;;;;;5.40;5.00;;;28.10;53.50;;;;;;4957172;29;20521;-79
2021/06/18 00:03:40;;;;;;;5.63;5.23;;;28.10;53.50;;;;;;4957292;29;20433;-80
2021/06/18 00:06:09;;;;;;;5.63;5.07;;;28.10;53.50;;;;;;4958407;29;20411;-81
2021/06/18 00:08:37;;;;;;;5.70;5.20;;;28.10;53.50;;;;;;4956874;29;20486;-79
2021/06/18 00:11:03;;;;;;;5.50;4.73;;;28.10;53.50;;;;;;4955445;29;20415;-79
2021/06/18 00:13:29;;;;;;;5.77;5.27;;;28.10;53.60;;;;;;4955310;29;20434;-79
2021/06/18 00:15:55;;;;;;;5.20;4.80;;;28.10;53.50;;;;;;4955136;29;20425;-80
2021/06/18 00:18:21;;;;;;;5.40;5.00;;;28.10;53.50;;;;;;4956684;29;20427;-80
2021/06/18 00:20:48;;;;;;;5.87;5.07;;;28.10;53.50;;;;;;4957664;29;20423;-80
2021/06/18 00:23:14;;;;;;;6.33;5.83;;;28.10;53.50;;;;;;4958371;29;20431;-80
2021/06/18 00:25:42;;;;;;;6.07;5.60;;;28.10;53.50;;;;;;4974459;29;20410;-79
2021/06/18 00:28:15;;;;;;;5.37;4.97;;;28.00;53.40;;;;;;4976488;29;20462;-79
2021/06/18 00:30:42;;;;;;;6.10;5.50;;;28.10;53.50;;;;;;4964840;29;20415;-80
2021/06/18 00:33:09;;;;;;;6.23;5.20;;;28.00;53.40;;;;;;4957204;29;20429;-78
2021/06/18 00:35:35;;;;;;;4.83;4.43;;;28.10;53.50;;;;;;4957479;29;20423;-78
2021/06/18 00:38:04;;;;;;;5.43;5.00;;;28.00;53.50;;;;;;4957448;29;20481;-79
2021/06/18 00:40:32;;;;;;;5.47;5.07;;;28.00;53.40;;;;;;4957025;29;20395;-79
2021/06/18 00:42:59;;;;;;;6.03;5.00;;;28.10;53.50;;;;;;4956817;29;20419;-79
2021/06/18 00:45:25;;;;;;;6.27;5.70;;;28.10;53.50;;;;;;4957059;29;20476;-79
2021/06/18 00:47:58;;;;;;;7.00;5.40;;;28.10;53.50;;;;;;4957888;29;20489;-79
2021/06/18 00:50:26;;;;;;;5.77;5.23;;;28.00;53.50;;;;;;4957206;29;20414;-79
2021/06/18 00:52:53;;;;;;;5.40;4.90;;;28.10;53.50;;;;;;4957680;29;20415;-80
2021/06/18 00:55:20;;;;;;;4.90;4.60;;;28.10;53.50;;;;;;4957672;29;20415;-79
2021/06/18 00:57:54;;;;;;;5.97;5.57;;;28.00;53.40;;;;;;4957595;29;20438;-79
2021/06/18 01:00:21;;;;;;;5.90;5.33;;;28.10;53.50;;;;;;4957017;29;20494;-80
2021/06/18 01:02:50;;;;;;;6.33;5.80;;;28.00;53.40;;;;;;4957240;29;20430;-80
2021/06/18 01:05:21;;;;;;;6.20;5.60;;;28.00;53.40;;;;;;4957982;29;20446;-80
2021/06/18 01:07:55;;;;;;;6.17;5.57;;;28.00;53.50;;;;;;4956480;29;20474;-79
2021/06/18 01:10:27;;;;;;;5.20;4.80;;;28.10;53.50;;;;;;4954197;29;20426;-79
2021/06/18 01:13:15;;;;;;;7.10;6.50;;;28.00;53.40;;;;;;4955441;29;20407;-80
2021/06/18 01:15:56;;;;;;;5.50;5.10;;;28.00;53.40;;;;;;4955526;29;20402;-79
2021/06/18 01:18:35;;;;;;;6.20;5.70;;;28.00;53.40;;;;;;4946427;29;20442;-79
2021/06/18 01:21:19;;;;;;;6.30;5.73;;;28.00;53.50;;;;;;4936822;29;20412;-79
2021/06/18 01:23:58;;;;;;;5.80;5.30;;;28.00;53.50;;;;;;4939770;29;20905;-79
2021/06/18 01:26:26;;;;;;;6.13;5.63;;;28.00;53.50;;;;;;4939857;29;20423;-79
2021/06/18 01:28:57;;;;;;;7.07;5.67;;;28.00;53.50;;;;;;4941102;29;20412;-81
2021/06/18 01:31:30;;;;;;;6.70;6.20;;;28.00;53.50;;;;;;4940615;29;20475;-80
2021/06/18 01:34:01;;;;;;;6.07;5.57;;;28.00;53.50;;;;;;4940769;29;20400;-79
2021/06/18 01:36:28;;;;;;;6.50;6.00;;;28.00;54.00;;;;;;4940420;29;20412;-80
2021/06/18 01:38:57;;;;;;;5.80;5.30;;;28.00;53.50;;;;;;4940497;29;20420;-80
2021/06/18 01:41:28;;;;;;;5.90;5.47;;;28.00;53.50;;;;;;4941300;29;20420;-79
2021/06/18 01:43:54;;;;;;;6.60;6.10;;;28.00;53.50;;;;;;4941388;29;20406;-80
2021/06/18 01:46:28;;;;;;;5.30;4.90;;;28.00;53.50;;;;;;4939985;29;20456;-80
2021/06/18 01:49:05;;;;;;;6.00;5.50;;;28.00;53.50;;;;;;4940762;29;20408;-79
2021/06/18 01:51:32;;;;;;;6.47;5.97;;;28.00;53.50;;;;;;4940450;29;20430;-79
2021/06/18 01:54:00;;;;;;;6.90;6.30;;;28.00;53.50;;;;;;4940218;29;20427;-79
2021/06/18 01:56:30;;;;;;;5.53;5.13;;;28.00;53.50;;;;;;4941100;29;20404;-79
2021/06/18 01:59:00;;;;;;;6.23;5.73;;;28.00;53.50;;;;;;4940387;29;20792;-80
2021/06/18 02:01:42;;;;;;;5.93;5.43;;;28.00;53.50;;;;;;4940807;29;20499;-80
2021/06/18 02:04:10;;;;;;;6.17;5.63;;;28.00;53.50;;;;;;4940280;29;20432;-81
2021/06/18 02:06:39;;;;;;;5.77;5.27;;;28.00;53.50;;;;;;4940499;29;20463;-80
2021/06/18 02:09:07;;;;;;;5.50;5.10;;;28.00;53.50;;;;;;4939690;29;20824;-81
2021/06/18 02:11:37;;;;;;;5.93;5.43;;;28.00;53.40;;;;;;4939890;29;20435;-81
2021/06/18 02:14:08;;;;;;;6.00;5.60;;;28.00;53.40;;;;;;4939979;29;20396;-81
2021/06/18 02:16:41;;;;;;;6.30;5.90;;;28.00;53.40;;;;;;4940579;29;20472;-80
2021/06/18 02:19:08;;;;;;;6.23;5.70;;;28.00;53.40;;;;;;4940121;29;20427;-80
2021/06/18 02:21:35;;;;;;;6.47;5.97;;;28.00;53.40;;;;;;4939492;29;20476;-80
2021/06/18 02:30:56;;;;;;;6.07;5.57;;;28.00;53.40;;;;;;4880856;29;20402;-78
2021/06/18 02:33:27;;;;;;;6.30;5.87;;;27.90;53.50;;;;;;4879902;29;20419;-78
2021/06/18 02:35:56;;;;;;;6.07;5.57;;;28.00;53.50;;;;;;4888113;29;20457;-78
2021/06/18 02:38:24;;;;;;;7.30;6.60;;;28.00;53.50;;;;;;4884332;29;20426;-80
2021/06/18 02:40:52;;;;;;;6.73;6.23;;;27.90;53.40;;;;;;4883988;29;20534;-81
2021/06/18 02:43:24;;;;;;;6.47;5.97;;;28.00;53.40;;;;;;4885756;29;20433;-80
2021/06/18 02:45:50;;;;;;;5.87;5.47;;;28.00;53.40;;;;;;4885596;29;20421;-80
2021/06/18 02:52:02;;;;;;;6.20;5.70;;;28.00;53.40;;;;;;4901107;29;20402;-79
2021/06/18 02:55:08;;;;;;;6.47;5.97;;;28.00;53.50;;;;;;4871459;29;20425;-80
2021/06/18 02:57:59;;;;;;;6.17;5.67;;;27.90;53.40;;;;;;4929921;29;20407;-79
2021/06/18 03:00:34;;;;;;;6.93;6.40;;;27.90;53.40;;;;;;4958229;29;20379;-80
2021/06/18 03:03:03;;;;;;;6.27;5.77;;;27.90;53.40;;;;;;4963928;29;20436;-80
2021/06/18 03:05:36;;;;;;;8.13;6.23;;;27.90;53.40;;;;;;4972570;29;20486;-81
2021/06/18 03:08:14;;;;;;;6.83;6.33;;;28.00;53.50;;;;;;4956019;29;20454;-80
2021/06/18 03:10:51;;;;;;;6.90;6.40;;;28.00;53.50;;;;;;4960786;29;20406;-80
2021/06/18 03:13:20;;;;;;;7.47;6.90;;;27.90;53.40;;;;;;4976045;29;20406;-80
2021/06/18 03:15:52;;;;;;;7.10;6.40;;;28.00;53.50;;;;;;4975767;29;20414;-80
2021/06/18 03:18:31;;;;;;;6.93;6.30;;;27.90;53.40;;;;;;4976272;29;20493;-80
2021/06/18 03:21:00;;;;;;;7.10;6.60;;;27.90;53.40;;;;;;4975768;29;20450;-80
2021/06/18 03:23:39;;;;;;;7.80;7.10;;;27.90;53.50;;;;;;4976559;29;20453;-79
2021/06/18 03:26:06;;;;;;;7.70;7.10;;;27.90;53.40;;;;;;4976328;29;20417;-79
2021/06/18 03:28:34;;;;;;;7.47;6.87;;;27.90;53.40;;;;;;4975776;29;20462;-78
2021/06/18 03:31:01;;;;;;;7.77;7.07;;;27.90;53.40;;;;;;4976394;28;20477;-78
2021/06/18 03:33:28;;;;;;;7.70;7.10;;;27.90;53.40;;;;;;4975786;29;20418;-78
2021/06/18 03:35:57;;;;;;;7.43;6.73;;;27.90;53.40;;;;;;4975737;29;20418;-78
2021/06/18 03:38:23;;;;;;;7.13;6.57;;;27.90;53.40;;;;;;4975521;29;20422;-79
2021/06/18 03:40:50;;;;;;;7.33;6.73;;;27.90;53.40;;;;;;4975594;29;20787;-79
2021/06/18 03:43:19;;;;;;;8.00;7.30;;;28.00;53.40;;;;;;4975129;29;20418;-79
2021/06/18 03:45:48;;;;;;;8.77;7.97;;;27.90;53.40;;;;;;4976770;28;20425;-79
2021/06/18 03:48:16;;;;;;;7.30;6.80;;;28.00;53.40;;;;;;4968765;28;20454;-79
2021/06/18 03:50:43;;;;;;;7.10;6.50;;;27.90;53.30;;;;;;4977639;29;20434;-79
2021/06/18 03:53:14;;;;;;;7.40;6.80;;;28.00;53.40;;;;;;4977793;28;20417;-80
2021/06/18 03:55:44;;;;;;;7.60;6.80;;;28.00;53.40;;;;;;4976268;29;20406;-80
2021/06/18 03:58:11;;;;;;;6.63;6.13;;;28.00;53.40;;;;;;4975900;29;20453;-79
2021/06/18 04:00:42;;;;;;;7.97;7.13;;;28.00;53.40;;;;;;4976749;28;20430;-79
2021/06/18 04:03:10;;;;;;;7.47;6.80;;;27.90;53.30;;;;;;4976678;29;20413;-80
2021/06/18 04:05:40;;;;;;;7.67;6.57;;;28.00;53.30;;;;;;4976385;29;20417;-79
2021/06/18 04:08:07;;;;;;;7.83;7.17;;;27.90;53.90;;;;;;4978216;29;20464;-79
2021/06/18 04:10:38;;;;;;;7.13;6.53;;;28.00;53.30;;;;;;4978673;29;20406;-80
2021/06/18 04:13:17;;;;;;;6.67;6.17;;;28.00;53.30;;;;;;4963730;29;20478;-80
2021/06/18 04:15:45;;;;;;;6.90;6.40;;;28.00;53.30;;;;;;4956999;29;20419;-79
2021/06/18 04:24:56;;;;;;;7.63;7.03;;;28.00;53.30;;;;;;4946195;29;20436;-79
2021/06/18 04:27:22;;;;;;;6.77;5.70;;;28.00;53.40;;;;;;4942380;29;20463;-79
2021/06/18 04:29:49;;;;;;;6.93;6.40;;;27.90;53.30;;;;;;4947102;29;20474;-81
2021/06/18 04:32:18;;;;;;;7.13;6.63;;;28.00;53.30;;;;;;4938055;29;20176;-80
2021/06/18 04:34:45;;;;;;;6.20;5.70;;;28.00;53.40;;;;;;4945271;29;20423;-80
2021/06/18 04:37:15;;;;;;;6.60;6.00;;;28.00;53.30;;;;;;4953812;29;20454;-80
2021/06/18 04:39:54;;;;;;;6.77;6.27;;;28.00;53.30;;;;;;4939278;29;20439;-80
2021/06/18 04:42:22;;;;;;;6.77;6.27;;;28.00;53.30;;;;;;4957827;29;20406;-80
2021/06/18 04:44:54;;;;;;;6.53;6.03;;;28.00;53.30;;;;;;4949842;29;20412;-80
2021/06/18 04:47:21;;;;;;;6.97;6.37;;;28.00;53.20;;;;;;4952374;29;20465;-80
2021/06/18 04:49:49;;;;;;;6.70;6.10;;;28.00;53.30;;;;;;4956819;29;20407;-80
2021/06/18 04:52:26;;;;;;;6.70;6.20;;;28.00;53.20;;;;;;4957421;29;20481;-80
2021/06/18 04:55:02;;;;;;;7.03;6.43;;;28.00;53.30;;;;;;4940963;29;20420;-80
2021/06/18 04:57:29;;;;;;;7.03;6.47;;;28.00;53.20;;;;;;4952764;29;20512;-80
2021/06/18 04:59:56;;;;;;;7.10;6.50;;;28.00;53.70;;;;;;4949297;29;20460;-80
2021/06/18 05:02:24;;;;;;;6.87;6.37;;;28.00;53.20;;;;;;4946420;29;20446;-80
2021/06/18 05:04:51;;;;;;;7.60;6.40;;;28.10;53.20;;;;;;4941813;29;20451;-80
2021/06/18 05:07:18;;;;;;;7.30;6.73;;;28.10;53.20;;;;;;4949137;29;20454;-80
2021/06/18 05:09:44;;;;;;;7.33;6.73;;;28.10;53.20;;;;;;4957910;29;20419;-79
2021/06/18 05:12:13;;;;;;;6.10;5.60;;;28.10;53.20;;;;;;4957861;29;20447;-80
2021/06/18 05:14:39;;;;;;;7.60;6.40;;;28.10;53.10;;;;;;4959778;29;20470;-79
2021/06/18 05:17:07;;;;;;;6.73;6.23;;;28.10;53.20;;;;;;4959615;29;20459;-80
2021/06/18 05:19:37;;;;;;;7.07;6.53;;;28.10;53.10;;;;;;4959295;29;20427;-78
2021/06/18 05:22:06;;;;;;;6.67;6.17;;;28.10;53.20;;;;;;4960195;29;20450;-78
2021/06/18 05:24:32;;;;;;;7.00;6.40;;;28.10;53.10;;;;;;4960310;29;20450;-78
2021/06/18 05:26:58;;;;;;;7.80;7.20;;;28.10;53.10;;;;;;4960802;29;20466;-79
2021/06/18 05:29:25;;;;;;;6.90;6.30;;;28.10;53.10;;;;;;4961775;29;20174;-80
2021/06/18 05:31:51;;;;;;;7.07;6.47;;;28.10;53.10;;;;;;4962411;29;20470;-80
2021/06/18 05:34:25;;;;;;;8.33;7.60;;;28.10;53.10;;;;;;4960951;29;20486;-81
2021/06/18 05:36:51;;;;;;;7.60;6.93;;;28.10;53.10;;;;;;4958666;29;20423;-80
2021/06/18 05:39:17;;;;;;;8.37;7.07;;;28.10;53.10;;;;;;4958117;29;20455;-80
2021/06/18 05:41:45;;;;;;;7.63;7.03;;;28.10;53.10;;;;;;4957005;29;20837;-80
2021/06/18 05:44:27;;;;;;;6.70;6.20;;;28.10;53.10;;;;;;4943026;29;20191;-79
2021/06/18 05:47:08;;;;;;;7.83;7.13;;;28.10;53.10;;;;;;4961349;29;20453;-79
2021/06/18 05:49:39;;;;;;;6.97;6.47;;;28.10;53.10;;;;;;4959634;29;20434;-79
2021/06/18 05:52:08;;;;;;;7.43;6.77;;;28.10;53.10;;;;;;4961356;29;20422;-79
2021/06/18 05:54:36;;;;;;;7.90;7.30;;;28.10;53.10;;;;;;4961634;29;20410;-79
2021/06/18 05:57:26;;;;;;;7.77;7.07;;;28.10;53.10;;;;;;4958578;29;20418;-79
2021/06/18 05:59:58;;;;;;;12.00;6.80;;;28.10;53.10;;;;;;4959811;29;20944;-80
2021/06/18 06:02:34;;;;;;;7.70;7.07;;;28.10;53.10;;;;;;4978309;29;20452;-79
2021/06/18 06:05:02;;;;;;;7.60;7.00;;;28.10;53.10;;;;;;4979167;28;20421;-80
2021/06/18 06:07:33;;;;;;;7.77;7.17;;;28.10;53.10;;;;;;4979153;28;20950;-80
2021/06/18 06:09:59;;;;;;;7.60;7.00;;;28.10;53.10;;;;;;4979051;29;20394;-79
2021/06/18 06:12:34;;;;;;;7.40;6.70;;;28.10;53.10;;;;;;4979490;29;20426;-79
2021/06/18 06:15:30;;;;;;;7.70;7.00;;;28.10;53.00;;;;;;4980038;28;20422;-79
2021/06/18 06:18:05;;;;;;;7.50;6.90;;;28.10;53.10;;;;;;4977549;28;20470;-79
2021/06/18 06:20:38;;;;;;;7.10;6.60;;;28.10;53.10;;;;;;4960550;29;20453;-79
2021/06/18 06:23:04;;;;;;;7.43;6.73;;;28.10;53.10;;;;;;4979132;29;20414;-79
2021/06/18 06:25:30;;;;;;;7.43;6.83;;;28.10;53.10;;;;;;4979849;29;20425;-79
2021/06/18 06:28:22;;;;;;;7.30;6.80;;;28.10;53.00;;;;;;4979787;28;20453;-79
2021/06/18 06:30:48;;;;;;;7.30;6.60;;;28.10;53.10;;;;;;4979954;28;20434;-79
2021/06/18 06:33:14;;;;;;;8.30;7.50;;;28.10;53.10;;;;;;4979522;28;20449;-78
2021/06/18 06:35:42;;;;;;;6.73;6.23;;;28.10;53.00;;;;;;4978902;29;20424;-79
2021/06/18 06:38:09;;;;;;;7.60;7.00;;;28.10;53.00;;;;;;4979582;28;20387;-79
2021/06/18 06:40:45;;;;;;;7.67;7.00;;;28.10;53.00;;;;;;4980197;28;20430;-79
2021/06/18 06:43:14;;;;;;;7.57;6.80;;;28.10;53.00;;;;;;4980131;28;20406;-80
2021/06/18 06:45:43;;;;;;;7.93;7.23;;;28.10;53.00;;;;;;4979503;28;20409;-79
2021/06/18 06:48:09;;;;;;;7.97;7.27;;;28.10;53.00;;;;;;4978360;29;20465;-79
2021/06/18 06:50:35;;;;;;;7.90;7.20;;;28.10;53.00;;;;;;4979708;29;20426;-79
2021/06/18 06:53:02;;;;;;;6.73;6.03;;;28.10;53.00;;;;;;4978546;29;20896;-79
2021/06/18 06:55:28;;;;;;;7.27;6.57;;;28.10;53.00;;;;;;4978482;29;20421;-79
2021/06/18 06:57:54;;;;;;;8.07;7.37;;;28.20;53.10;;;;;;4978707;29;20425;-79
2021/06/18 07:00:23;;;;;;;8.97;8.20;;;28.10;53.00;;;;;;4978390;29;20402;-79
2021/06/18 07:02:52;;;;;;;7.40;6.80;;;28.10;53.00;;;;;;4978810;29;20410;-79
2021/06/18 07:05:21;;;;;;;6.87;6.27;;;28.10;53.00;;;;;;4946004;29;20422;-79
2021/06/18 07:07:50;;;;;;;7.70;7.10;;;28.10;53.00;;;;;;4976021;29;20524;-79
2021/06/18 07:10:35;;;;;;;8.10;7.43;;;28.10;53.00;;;;;;4978244;29;20406;-80
2021/06/18 07:16:25;;;;;;;7.27;6.77;;;28.20;53.10;;;;;;4977740;29;20923;-79
2021/06/18 07:18:52;;;;;;;7.30;6.70;;;28.10;53.10;;;;;;4976782;28;20432;-78
2021/06/18 07:21:21;;;;;;;7.47;6.87;;;28.10;53.10;;;;;;4976683;29;20575;-80
2021/06/18 07:23:55;;;;;;;7.83;7.23;;;28.10;53.10;;;;;;4976481;29;20426;-80
2021/06/18 07:26:38;;;;;;;7.57;6.87;;;28.20;53.20;;;;;;4977523;28;20441;-80
2021/06/18 07:29:10;;;;;;;7.87;7.27;;;28.10;53.10;;;;;;4976446;29;20428;-79
2021/06/18 07:31:43;;;;;;;7.27;6.70;;;28.20;53.20;;;;;;4976931;29;20446;-79
2021/06/18 07:34:09;;;;;;;6.93;6.43;;;28.20;53.20;;;;;;4960368;29;20414;-78
2021/06/18 07:36:36;;;;;;;8.50;7.70;;;28.10;53.10;;;;;;4976012;29;20453;-79
2021/06/18 07:39:08;;;;;;;7.33;6.43;;;28.10;53.20;;;;;;4976700;28;20399;-78
2021/06/18 07:41:38;;;;;;;7.80;7.07;;;28.20;53.20;;;;;;4970474;29;20438;-79
2021/06/18 07:44:05;;;;;;;7.57;6.87;;;28.20;53.20;;;;;;4954778;29;20439;-79
2021/06/18 07:46:31;;;;;;;7.60;6.83;;;28.10;53.20;;;;;;4955384;29;20411;-79
2021/06/18 07:48:57;;;;;;;6.90;6.40;;;28.20;53.20;;;;;;4955687;29;20426;-79
2021/06/18 07:51:23;;;;;;;7.23;6.53;;;28.10;53.20;;;;;;4955529;29;20458;-78
2021/06/18 07:53:49;;;;;;;7.03;6.43;;;28.10;53.30;;;;;;4956343;29;20419;-80
2021/06/18 07:56:23;;;;;;;6.90;6.40;;;28.20;53.30;;;;;;4955661;29;20179;-80
2021/06/18 07:58:52;;;;;;;7.40;6.90;;;28.20;53.50;;;;;;4956924;29;20399;-78
2021/06/18 08:01:24;;;;;;;6.70;6.10;;;28.20;53.40;;;;;;4955869;29;20426;-78
2021/06/18 08:03:53;;;;;;;7.47;6.87;;;28.20;53.40;;;;;;4955068;29;20429;-78
2021/06/18 08:06:19;;;;;;;6.73;6.23;;;28.20;53.50;;;;;;4954836;29;20423;-79
2021/06/18 08:12:12;;;;;;;7.17;6.57;;;28.20;53.50;;;;;;4878736;29;20169;-78
2021/06/18 08:14:48;;;;;;;6.83;6.33;;;28.20;53.70;;;;;;4878851;29;20415;-78
2021/06/18 08:17:15;;;;;;;7.37;6.77;;;28.20;53.70;;;;;;4878783;29;20442;-79
2021/06/18 08:19:44;;;;;;;6.70;6.20;;;28.30;53.70;;;;;;4879078;29;20560;-79
2021/06/18 08:22:24;;;;;;;7.00;6.40;;;28.20;53.70;;;;;;4881502;29;20431;-80
2021/06/18 08:24:50;;;;;;;6.70;6.20;;;28.30;53.80;;;;;;4867236;29;20446;-80
2021/06/18 08:30:41;;;;;;;7.03;6.50;;;28.30;53.80;;;;;;4882040;29;20438;-79
2021/06/18 08:33:37;;;;;;;7.23;6.60;;;28.30;53.80;;;;;;4882973;29;20441;-78
2021/06/18 08:39:28;;;;;;;6.47;5.97;;;28.30;53.80;;;;;;4883893;29;20468;-79
2021/06/18 08:42:01;;;;;;;6.80;6.20;;;28.30;53.80;;;;;;4904419;29;20419;-80
2021/06/18 08:44:27;;;;;;;6.10;5.60;;;28.30;53.90;;;;;;4951089;29;20447;-79
2021/06/18 08:46:54;;;;;;;6.80;6.30;;;28.30;53.90;;;;;;4958312;29;20465;-79
2021/06/18 08:52:31;;;;;;;6.93;6.33;;;28.30;53.90;;;;;;4959247;29;20383;-78
2021/06/18 08:55:20;;;;;;;7.27;6.60;;;28.30;53.90;;;;;;4958803;29;20407;-78
2021/06/18 08:57:49;;;;;;;5.80;5.40;;;28.30;53.80;;;;;;4958846;29;20454;-79
2021/06/18 09:00:16;;;;;;;6.37;5.87;;;28.30;53.90;;;;;;4957892;29;20445;-78
2021/06/18 09:02:43;;;;;;;6.63;6.10;;;28.30;53.80;;;;;;4956827;29;20457;-78
2021/06/18 09:05:21;;;;;;;6.10;5.60;;;28.30;53.80;;;;;;4957013;29;20422;-79
2021/06/18 09:08:21;;;;;;;7.30;5.70;;;28.40;53.90;;;;;;4957496;29;20453;-78
2021/06/18 09:10:54;;;;;;;6.10;5.60;;;28.40;53.90;;;;;;4940817;29;20494;-79
2021/06/18 09:13:31;;;;;;;6.40;5.90;;;28.40;53.90;;;;;;4957512;29;20403;-78
2021/06/18 09:16:04;;;;;;;6.30;5.70;;;28.40;53.90;;;;;;4956871;29;20410;-79
2021/06/18 09:18:55;;;;;;;5.90;5.50;;;28.40;53.90;;;;;;4954612;29;20471;-79
2021/06/18 09:25:34;;;;;;;6.50;6.00;;;28.40;53.90;;;;;;4957941;29;20472;-79
2021/06/18 09:28:11;;;;;;;7.93;5.83;;;28.40;53.90;;;;;;4957987;29;20461;-79
2021/06/18 09:30:37;;;;;;;5.40;5.00;;;28.40;54.00;;;;;;4957790;29;20422;-79
2021/06/18 09:33:05;;;;;;;5.70;5.20;;;28.40;53.90;;;;;;4958474;29;20431;-79
2021/06/18 09:35:45;;;;;;;6.03;5.53;;;28.40;54.00;;;;;;4955212;29;20936;-79
2021/06/18 09:38:11;;;;;;;5.60;5.10;;;28.40;53.90;;;;;;4956084;29;20419;-79
2021/06/18 09:40:40;;;;;;;6.00;5.50;;;28.40;54.00;;;;;;4956229;29;20517;-79
2021/06/18 09:43:16;;;;;;;6.70;6.10;;;28.40;53.90;;;;;;4956752;29;20431;-80
2021/06/18 09:45:43;;;;;;;6.73;6.23;;;28.50;53.90;;;;;;4958346;29;20437;-80
2021/06/18 09:48:15;;;;;;;5.60;5.10;;;28.50;53.90;;;;;;4957842;29;20470;-80
2021/06/18 09:50:47;;;;;;;5.30;4.80;;;28.50;53.90;;;;;;4958577;29;20409;-78
2021/06/18 09:53:22;;;;;;;5.57;5.17;;;28.50;53.90;;;;;;4958871;29;20411;-79
2021/06/18 09:56:11;;;;;;;5.83;5.33;;;28.50;54.00;;;;;;4962515;29;20397;-79
2021/06/18 09:59:10;;;;;;;6.43;5.90;;;28.50;53.90;;;;;;4947325;29;20435;-79
2021/06/18 10:05:30;;;;;;;5.83;5.43;;;28.50;54.00;;;;;;4962338;29;20405;-79
2021/06/18 10:07:58;;;;;;;5.37;4.97;;;28.50;53.90;;;;;;4961104;29;20462;-79
2021/06/18 10:13:53;;;;;;;5.50;5.00;;;28.50;53.90;;;;;;4922669;29;20416;-81
2021/06/18 10:16:26;;;;;;;5.13;4.73;;;28.50;53.90;;;;;;4906735;29;20412;-81
2021/06/18 10:19:09;;;;;;;6.43;5.93;;;28.50;53.90;;;;;;4922635;29;20381;-80
2021/06/18 10:25:51;;;;;;;5.30;4.90;;;28.50;53.90;;;;;;4922207;29;20384;-80
2021/06/18 10:32:36;;;;;;;6.00;5.50;;;28.50;53.90;;;;;;4903196;29;20401;-79
2021/06/18 10:35:49;;;;;;;4.70;4.40;;;28.50;53.90;;;;;;4900041;29;20425;-80
2021/06/18 10:38:43;;;;;;;6.03;5.53;;;28.50;53.90;;;;;;4889552;29;20417;-80
2021/06/18 10:41:27;;;;;;;6.17;5.30;;;28.50;53.90;;;;;;4899214;29;20420;-80
2021/06/18 10:51:02;;;;;;;6.27;5.77;;;28.50;53.90;;;;;;4882859;29;20421;-80
2021/06/18 10:53:52;;;;;;;6.03;5.00;;;28.50;53.90;;;;;;4867176;29;20437;-79
2021/06/18 10:56:24;;;;;;;5.60;5.13;;;28.50;53.90;;;;;;4867269;29;20410;-78
2021/06/18 10:59:50;;;;;;;5.90;5.40;;;28.50;53.90;;;;;;4881779;29;20422;-78
2021/06/18 11:02:46;;;;;;;8.37;6.00;;;28.50;53.80;;;;;;4811403;29;20437;-78
2021/06/18 11:05:25;;;;;;;10.73;7.87;;;28.50;53.80;;;;;;4786043;30;20441;-80
2021/06/18 11:08:11;;;;;;;12.03;7.60;;;28.50;53.80;;;;;;4784627;30;20516;-79
2021/06/18 11:10:58;;;;;;;17.40;9.17;;;28.50;53.80;;;;;;4789935;30;20570;-79
2021/06/18 11:13:54;;;;;;;18.50;10.00;;;28.50;53.90;;;;;;4789793;30;20558;-79
2021/06/18 11:16:41;;;;;;;19.30;9.50;;;28.60;53.90;;;;;;4789806;30;20431;-79
2021/06/18 11:20:01;;;;;;;16.63;10.20;;;28.60;53.90;;;;;;4789097;30;20438;-80
2021/06/18 11:26:13;;;;;;;14.87;10.40;;;28.50;53.90;;;;;;4825200;29;20550;-79
2021/06/18 11:28:47;;;;;;;15.07;11.17;;;28.50;53.90;;;;;;4825315;29;20465;-79
2021/06/18 11:32:07;;;;;;;22.73;10.87;;;28.50;54.00;;;;;;4810573;29;20430;-80
2021/06/18 11:34:40;;;;;;;17.10;10.20;;;28.50;54.00;;;;;;4808713;29;20429;-80
2021/06/18 11:37:06;;;;;;;13.67;9.80;;;28.50;54.00;;;;;;4828096;29;20503;-81
2021/06/18 11:39:35;;;;;;;18.93;11.43;;;28.50;54.00;;;;;;4827262;29;20429;-81
2021/06/18 11:48:49;;;;;;;17.80;11.40;;;28.50;54.00;;;;;;4861352;29;20522;-79
2021/06/18 11:51:40;;;;;;;18.60;11.47;;;28.50;54.00;;;;;;4860722;29;20411;-79
2021/06/18 11:54:08;;;;;;;16.70;11.50;;;28.50;54.00;;;;;;4860159;29;20419;-79
2021/06/18 11:57:19;;;;;;;13.07;9.67;;;28.50;54.10;;;;;;4846087;29;20432;-79
2021/06/18 12:00:21;;;;;;;16.03;11.17;;;28.50;54.00;;;;;;4827583;29;20439;-79
2021/06/18 12:02:53;;;;;;;15.70;10.67;;;28.50;54.10;;;;;;4857099;29;20442;-79
2021/06/18 12:05:19;;;;;;;17.23;10.57;;;28.40;54.00;;;;;;4845823;29;20447;-78
2021/06/18 12:07:49;;;;;;;19.20;11.77;;;28.40;54.00;;;;;;4861180;29;20474;-79
2021/06/18 12:10:32;;;;;;;15.90;9.97;;;28.40;54.00;;;;;;4845790;29;20420;-78
2021/06/18 12:12:59;;;;;;;15.93;9.70;;;28.50;54.10;;;;;;4846242;29;20420;-78
2021/06/18 12:15:33;;;;;;;15.03;10.57;;;28.40;54.00;;;;;;4846772;29;20434;-78
2021/06/18 12:18:02;;;;;;;18.03;10.63;;;28.50;54.00;;;;;;4861011;29;20436;-78
2021/06/18 12:20:55;;;;;;;19.33;12.00;;;28.40;54.00;;;;;;4846404;29;20974;-78
2021/06/18 12:23:24;;;;;;;13.77;11.70;;;28.50;54.10;;;;;;4956578;29;20395;-78
2021/06/18 12:26:45;;;;;;;11.87;10.47;;;28.50;54.10;;;;;;4939602;29;20451;-79
2021/06/18 12:29:18;;;;;;;17.67;11.37;;;28.50;54.00;;;;;;4949828;29;20510;-79
2021/06/18 12:32:03;;;;;;;17.70;10.43;;;28.50;54.10;;;;;;4944631;29;20434;-80
2021/06/18 12:34:46;;;;;;;16.50;10.70;;;28.50;54.00;;;;;;4938137;29;20423;-79
2021/06/18 12:37:23;;;;;;;15.30;10.33;;;28.40;54.00;;;;;;4923984;29;20772;-81
2021/06/18 12:40:13;;;;;;;15.13;10.30;;;28.50;54.10;;;;;;4936383;29;20415;-80
2021/06/18 12:42:48;;;;;;;17.80;10.20;;;28.50;54.00;;;;;;4950450;29;20422;-79
2021/06/18 12:45:29;;;;;;;16.87;11.37;;;28.50;54.00;;;;;;4949517;29;20443;-79
2021/06/18 12:48:34;;;;;;;14.73;9.70;;;28.50;54.00;;;;;;4949495;29;20478;-79
2021/06/18 12:51:05;;;;;;;15.27;10.57;;;28.50;54.00;;;;;;4954918;29;20443;-80
2021/06/18 12:53:43;;;;;;;13.57;10.07;;;28.50;54.00;;;;;;4953063;29;20980;-80
2021/06/18 12:56:27;;;;;;;14.30;10.67;;;28.50;54.00;;;;;;4951972;29;20423;-80
2021/06/18 12:59:09;;;;;;;14.17;10.33;;;28.60;54.10;;;;;;4953501;29;20490;-79
2021/06/18 13:01:40;;;;;;;14.43;11.17;;;28.50;54.10;;;;;;4953919;29;20415;-79
2021/06/18 13:04:56;;;;;;;12.83;10.00;;;28.50;54.00;;;;;;4954518;29;20450;-80
2021/06/18 13:07:45;;;;;;;14.83;10.07;;;28.60;54.10;;;;;;4953603;29;20467;-80
2021/06/18 13:10:51;;;;;;;13.33;9.40;;;28.60;54.10;;;;;;4954212;29;20447;-79
2021/06/18 13:13:35;;;;;;;14.73;10.33;;;28.60;54.10;;;;;;4956109;29;20395;-79
2021/06/18 13:16:21;;;;;;;14.53;11.63;;;28.50;54.00;;;;;;4955412;29;20434;-79
2021/06/18 13:19:00;;;;;;;17.33;10.90;;;28.50;54.00;;;;;;4949534;29;20430;-80
2021/06/18 13:21:44;;;;;;;12.50;9.83;;;28.60;54.10;;;;;;4959547;29;20433;-79
2021/06/18 13:24:33;;;;;;;17.47;9.67;;;28.60;54.10;;;;;;4960005;29;20502;-79
2021/06/18 13:27:23;;;;;;;10.50;9.30;;;28.50;54.00;;;;;;4958316;29;20462;-80
2021/06/18 13:30:01;;;;;;;11.43;8.70;;;28.50;54.00;;;;;;4957483;29;20411;-80
2021/06/18 13:33:06;;;;;;;10.27;9.10;;;28.50;54.10;;;;;;4956777;29;20438;-80
2021/06/18 13:35:42;;;;;;;12.57;9.30;;;28.60;54.10;;;;;;4956414;29;20419;-80
2021/06/18 13:38:47;;;;;;;12.13;9.77;;;28.50;54.10;;;;;;4957948;29;20482;-80
2021/06/18 13:41:16;;;;;;;11.63;9.10;;;28.50;54.10;;;;;;4956942;29;20418;-80
2021/06/18 13:47:07;;;;;;;11.60;9.90;;;28.50;54.10;;;;;;4957317;29;20481;-79
2021/06/18 13:49:35;;;;;;;13.93;9.27;;;28.50;54.20;;;;;;4941259;29;20429;-78
2021/06/18 13:52:04;;;;;;;11.50;9.83;;;28.50;54.20;;;;;;4956145;29;20444;-79
2021/06/18 13:54:36;;;;;;;10.87;8.73;;;28.50;54.20;;;;;;4950388;29;20440;-79
2021/06/18 13:57:06;;;;;;;9.47;8.40;;;28.60;54.20;;;;;;4938693;29;20876;-78
2021/06/18 13:59:41;;;;;;;10.37;9.33;;;28.60;54.30;;;;;;4939285;29;20412;-78
2021/06/18 14:02:22;;;;;;;9.83;8.83;;;28.60;54.40;;;;;;4938551;29;20400;-78
2021/06/18 14:04:51;;;;;;;12.97;8.63;;;28.60;54.40;;;;;;4949171;29;20442;-79
2021/06/18 14:07:20;;;;;;;14.17;9.00;;;28.60;55.00;;;;;;4956258;29;20466;-80
2021/06/18 14:13:12;;;;;;;11.90;8.53;;;28.60;54.40;;;;;;4881279;29;20519;-79
2021/06/18 14:15:48;;;;;;;11.83;8.33;;;28.60;54.40;;;;;;4881078;29;20430;-79
2021/06/18 14:18:14;;;;;;;9.70;8.37;;;28.60;54.50;;;;;;4864063;29;20428;-79
2021/06/18 14:20:41;;;;;;;9.63;8.60;;;28.60;54.50;;;;;;4865690;29;20430;-80
2021/06/18 14:23:07;;;;;;;10.47;8.40;;;28.60;54.50;;;;;;4865173;29;20418;-80
2021/06/18 14:25:33;;;;;;;12.80;8.70;;;28.60;54.40;;;;;;4864209;29;20427;-79
2021/06/18 14:28:01;;;;;;;11.40;7.67;;;28.60;54.40;;;;;;4863365;29;20471;-80
2021/06/18 14:30:28;;;;;;;11.93;8.77;;;28.60;54.40;;;;;;4878721;29;20177;-79
2021/06/18 14:40:04;;;;;;;10.40;8.10;;;28.70;54.50;;;;;;4719242;30;20441;-80
2021/06/18 14:43:08;;;;;;;9.33;7.30;;;28.60;54.50;;;;;;4713876;30;20432;-80